Terminal Aerodrome Forecast
Issued by NWS Boston, MA

Home | Current Version | Previous Version | Text Only | Print | Product List | Glossary On
Versions: 1 2 3 4 5 6 7 8 9 10 11 12 13 14 15 16 17 18 19 20 21 22 23 24 25
000
FTUS41 KBOX 211750
TAFBOS
TAF
KBOS 211750Z 2118/2224 23013G25KT P6SM SCT200
     FM212300 25010KT P6SM SCT050
     FM220200 30010KT P6SM OVC050
     FM220700 34010KT P6SM BKN060
     FM221400 02007KT P6SM OVC090
     FM222000 05006KT 4SM -RA BR OVC015=

USA.gov is the U.S. government's official web portal to all federal, state and local government web resources and services.